Time,TemperatureF,DewpointF,PressureIn,WindDirection,WindDirectionDegrees,WindSpeedMPH,WindSpeedGustMPH,Humidity,HourlyPrecipIn,Conditions,Clouds,dailyrainin,SoftwareType,DateUTC
2013-10-08 00:00:00,59.5,54.7,30.24,North,-999,0.0,0.0,84,0.00,,,-99.99,FreeWX 2.05,2013-10-07 23:00:00,
2013-10-08 00:10:00,59.4,54.5,30.24,North,-999,0.0,0.0,84,0.00,,,-99.99,FreeWX 2.05,2013-10-07 23:10:00,
2013-10-08 00:15:00,59.4,54.5,30.24,North,-999,0.0,0.0,84,0.00,,,-99.99,FreeWX 2.05,2013-10-07 23:15:00,
2013-10-08 00:20:00,59.4,54.5,30.24,North,-999,0.0,0.0,84,0.00,,,-99.99,FreeWX 2.05,2013-10-07 23:20:00,
2013-10-08 00:30:00,59.4,54.9,30.24,North,-999,0.0,0.0,85,0.00,,,-99.99,FreeWX 2.05,2013-10-07 23:30:00,
2013-10-08 00:35:00,59.4,54.9,30.24,North,-999,0.0,0.0,85,0.00,,,-99.99,FreeWX 2.05,2013-10-07 23:35:00,
2013-10-08 00:45:00,59.0,54.5,30.24,North,-999,0.0,0.0,85,0.00,,,-99.99,FreeWX 2.05,2013-10-07 23:45:00,
2013-10-08 00:55:00,58.6,54.1,30.24,North,-999,0.0,0.0,85,0.00,,,-99.99,FreeWX 2.05,2013-10-07 23:55:00,
2013-10-08 01:00:00,58.5,54.0,30.24,North,-999,0.0,0.0,85,0.00,,,-99.99,FreeWX 2.05,2013-10-08 00:00:00,
2013-10-08 01:10:00,58.1,53.6,30.24,North,-999,0.0,0.0,85,0.00,,,-99.99,FreeWX 2.05,2013-10-08 00:10:00,
2013-10-08 01:15:00,57.9,53.8,30.24,North,-999,0.0,0.0,86,0.00,,,-99.99,FreeWX 2.05,2013-10-08 00:15:00,
2013-10-08 01:20:00,57.9,53.8,30.24,North,-999,0.0,0.0,86,0.00,,,-99.99,FreeWX 2.05,2013-10-08 00:20:00,
2013-10-08 01:30:00,57.9,53.8,30.24,North,-999,0.0,0.0,86,0.00,,,-99.99,FreeWX 2.05,2013-10-08 00:30:00,
2013-10-08 01:40:00,57.9,54.1,30.24,North,-999,0.0,0.0,87,0.00,,,-99.99,FreeWX 2.05,2013-10-08 00:40:00,
2013-10-08 01:45:00,57.9,54.1,30.24,North,-999,0.0,0.0,87,0.00,,,-99.99,FreeWX 2.05,2013-10-08 00:45:00,
2013-10-08 01:50:00,58.1,54.3,30.24,North,-999,0.0,0.0,87,0.00,,,-99.99,FreeWX 2.05,2013-10-08 00:50:00,
2013-10-08 01:55:00,58.1,54.3,30.24,North,-999,0.0,0.0,87,0.00,,,-99.99,FreeWX 2.05,2013-10-08 00:55:00,
2013-10-08 02:05:00,58.3,54.5,30.24,North,-999,0.0,0.0,87,0.00,,,-99.99,FreeWX 2.05,2013-10-08 01:05:00,
2013-10-08 02:10:00,58.3,54.7,30.24,North,-999,0.0,0.0,88,0.00,,,-99.99,FreeWX 2.05,2013-10-08 01:10:00,
2013-10-08 02:15:00,58.3,54.7,30.24,North,-999,0.0,0.0,88,0.00,,,-99.99,FreeWX 2.05,2013-10-08 01:15:00,
2013-10-08 02:20:00,58.5,54.9,30.24,North,-999,0.0,0.0,88,0.00,,,-99.99,FreeWX 2.05,2013-10-08 01:20:00,
2013-10-08 02:30:00,58.5,54.9,30.24,North,-999,0.0,0.0,88,0.00,,,-99.99,FreeWX 2.05,2013-10-08 01:30:00,
2013-10-08 02:35:00,58.5,55.2,30.24,North,-999,0.0,0.0,89,0.00,,,-99.99,FreeWX 2.05,2013-10-08 01:35:00,
2013-10-08 02:45:00,58.3,55.0,30.24,North,-999,0.0,0.0,89,0.00,,,-99.99,FreeWX 2.05,2013-10-08 01:45:00,
2013-10-08 02:55:00,58.3,55.0,30.24,North,-999,0.0,0.0,89,0.00,,,-99.99,FreeWX 2.05,2013-10-08 01:55:00,
2013-10-08 03:00:00,58.3,55.0,30.24,North,-999,0.0,0.0,89,0.00,,,-99.99,FreeWX 2.05,2013-10-08 02:00:00,
2013-10-08 03:05:00,58.3,55.4,30.24,North,-999,0.0,0.0,90,0.00,,,-99.99,FreeWX 2.05,2013-10-08 02:05:00,
2013-10-08 03:15:00,58.3,55.4,30.24,North,-999,0.0,0.0,90,0.00,,,-99.99,FreeWX 2.05,2013-10-08 02:15:00,
2013-10-08 03:20:00,58.3,55.4,30.24,North,-999,0.0,0.0,90,0.00,,,-99.99,FreeWX 2.05,2013-10-08 02:20:00,
2013-10-08 03:30:00,58.5,55.8,30.24,North,-999,0.0,0.0,91,0.00,,,-99.99,FreeWX 2.05,2013-10-08 02:30:00,
2013-10-08 03:40:00,58.5,55.8,30.24,North,-999,0.0,0.0,91,0.00,,,-99.99,FreeWX 2.05,2013-10-08 02:40:00,
2013-10-08 03:45:00,58.5,55.8,30.24,North,-999,0.0,0.0,91,0.00,,,-99.99,FreeWX 2.05,2013-10-08 02:45:00,
2013-10-08 03:50:00,58.5,55.8,30.24,North,-999,0.0,0.0,91,0.00,,,-99.99,FreeWX 2.05,2013-10-08 02:50:00,
2013-10-08 03:55:00,58.5,56.1,30.24,North,-999,0.0,0.0,92,0.00,,,-99.99,FreeWX 2.05,2013-10-08 02:55:00,
2013-10-08 04:05:00,58.6,56.3,30.24,North,-999,0.0,0.0,92,0.00,,,-99.99,FreeWX 2.05,2013-10-08 03:05:00,
2013-10-08 04:10:00,58.6,56.3,30.24,North,-999,0.0,0.0,92,0.00,,,-99.99,FreeWX 2.05,2013-10-08 03:10:00,
2013-10-08 04:15:00,58.6,56.3,30.24,North,-999,0.0,0.0,92,0.00,,,-99.99,FreeWX 2.05,2013-10-08 03:15:00,
2013-10-08 04:20:00,58.6,56.3,30.24,North,-999,0.0,0.0,92,0.00,,,-99.99,FreeWX 2.05,2013-10-08 03:20:00,
2013-10-08 04:25:00,58.6,56.3,30.24,North,-999,0.0,0.0,92,0.00,,,-99.99,FreeWX 2.05,2013-10-08 03:25:00,
2013-10-08 04:35:00,58.8,56.5,30.24,North,-999,0.0,0.0,92,0.00,,,-99.99,FreeWX 2.05,2013-10-08 03:35:00,
2013-10-08 04:45:00,58.8,56.8,30.24,North,-999,0.0,0.0,93,0.00,,,-99.99,FreeWX 2.05,2013-10-08 03:45:00,
2013-10-08 04:50:00,58.8,56.8,30.24,North,-999,0.0,0.0,93,0.00,,,-99.99,FreeWX 2.05,2013-10-08 03:50:00,
2013-10-08 04:55:00,58.8,56.8,30.24,North,-999,0.0,0.0,93,0.00,,,-99.99,FreeWX 2.05,2013-10-08 03:55:00,
2013-10-08 05:05:00,58.8,56.8,30.24,North,-999,0.0,0.0,93,0.00,,,-99.99,FreeWX 2.05,2013-10-08 04:05:00,
2013-10-08 05:10:00,58.8,56.8,30.24,North,-999,0.0,0.0,93,0.00,,,-99.99,FreeWX 2.05,2013-10-08 04:10:00,
2013-10-08 05:15:00,58.6,56.7,30.24,North,-999,0.0,0.0,93,0.00,,,-99.99,FreeWX 2.05,2013-10-08 04:15:00,
2013-10-08 05:20:00,58.6,56.7,30.24,North,-999,0.0,0.0,93,0.00,,,-99.99,FreeWX 2.05,2013-10-08 04:20:00,
2013-10-08 05:30:00,58.5,56.5,30.24,North,-999,0.0,0.0,93,0.00,,,-99.99,FreeWX 2.05,2013-10-08 04:30:00,
2013-10-08 05:35:00,58.3,56.3,30.24,North,-999,0.0,0.0,93,0.00,,,-99.99,FreeWX 2.05,2013-10-08 04:35:00,
2013-10-08 05:40:00,58.1,56.1,30.24,North,-999,0.0,0.0,93,0.00,,,-99.99,FreeWX 2.05,2013-10-08 04:40:00,
2013-10-08 05:45:00,57.9,55.9,30.24,North,-999,0.0,0.0,93,0.00,,,-99.99,FreeWX 2.05,2013-10-08 04:45:00,
2013-10-08 05:50:00,57.7,55.8,30.24,North,-999,0.0,0.0,93,0.00,,,-99.99,FreeWX 2.05,2013-10-08 04:50:00,
2013-10-08 05:55:00,57.6,55.6,30.24,North,-999,0.0,0.0,93,0.00,,,-99.99,FreeWX 2.05,2013-10-08 04:55:00,
2013-10-08 06:05:00,57.4,55.4,30.24,North,-999,0.0,0.0,93,0.00,,,-99.99,FreeWX 2.05,2013-10-08 05:05:00,
2013-10-08 06:10:00,57.4,55.4,30.24,North,-999,0.0,0.0,93,0.00,,,-99.99,FreeWX 2.05,2013-10-08 05:10:00,
2013-10-08 06:15:00,57.2,55.2,30.24,North,-999,0.0,0.0,93,0.00,,,-99.99,FreeWX 2.05,2013-10-08 05:15:00,
2013-10-08 06:20:00,57.0,55.0,30.24,North,-999,0.0,0.0,93,0.00,,,-99.99,FreeWX 2.05,2013-10-08 05:20:00,
2013-10-08 06:25:00,57.0,55.0,30.24,North,-999,0.0,0.0,93,0.00,,,-99.99,FreeWX 2.05,2013-10-08 05:25:00,
2013-10-08 06:30:00,57.0,55.0,30.24,North,-999,0.0,0.0,93,0.00,,,-99.99,FreeWX 2.05,2013-10-08 05:30:00,
2013-10-08 06:40:00,57.0,55.2,30.24,North,-999,0.0,0.0,94,0.00,,,-99.99,FreeWX 2.05,2013-10-08 05:40:00,
2013-10-08 06:45:00,57.0,55.2,30.24,North,-999,0.0,0.0,94,0.00,,,-99.99,FreeWX 2.05,2013-10-08 05:45:00,
2013-10-08 06:55:00,56.8,55.0,30.24,North,-999,0.0,0.0,94,0.00,,,-99.99,FreeWX 2.05,2013-10-08 05:55:00,
2013-10-08 07:00:00,56.8,55.0,30.24,North,-999,0.0,0.0,94,0.00,,,-99.99,FreeWX 2.05,2013-10-08 06:00:00,
2013-10-08 07:10:00,56.7,54.7,30.24,North,-999,0.0,0.0,93,0.00,,,-99.99,FreeWX 2.05,2013-10-08 06:10:00,
2013-10-08 07:15:00,56.5,54.5,30.24,North,-999,0.0,0.0,93,0.00,,,-99.99,FreeWX 2.05,2013-10-08 06:15:00,
2013-10-08 07:20:00,56.5,54.9,30.24,North,-999,0.0,0.0,94,0.00,,,-99.99,FreeWX 2.05,2013-10-08 06:20:00,
2013-10-08 07:25:00,56.3,54.7,30.24,North,-999,0.0,0.0,94,0.00,,,-99.99,FreeWX 2.05,2013-10-08 06:25:00,
2013-10-08 07:35:00,56.3,54.7,30.24,North,-999,0.0,0.0,94,0.00,,,-99.99,FreeWX 2.05,2013-10-08 06:35:00,
2013-10-08 07:40:00,56.3,54.7,30.24,North,-999,0.0,0.0,94,0.00,,,-99.99,FreeWX 2.05,2013-10-08 06:40:00,
2013-10-08 07:50:00,56.3,54.7,30.24,North,-999,0.0,0.0,94,0.00,,,-99.99,FreeWX 2.05,2013-10-08 06:50:00,
2013-10-08 08:00:00,56.5,54.9,30.24,North,-999,0.0,0.0,94,0.00,,,-99.99,FreeWX 2.05,2013-10-08 07:00:00,
2013-10-08 08:05:00,56.5,54.9,30.24,North,-999,0.0,0.0,94,0.00,,,-99.99,FreeWX 2.05,2013-10-08 07:05:00,
2013-10-08 08:10:00,56.7,55.0,30.24,North,-999,0.0,0.0,94,0.00,,,-99.99,FreeWX 2.05,2013-10-08 07:10:00,
2013-10-08 08:16:00,57.0,55.2,30.24,North,-999,0.0,0.0,94,0.00,,,-99.99,FreeWX 2.05,2013-10-08 07:16:00,
2013-10-08 08:25:00,57.6,56.1,30.27,North,-999,0.0,0.0,95,0.00,,,-99.99,FreeWX 2.05,2013-10-08 07:25:00,
2013-10-08 08:30:00,57.7,56.3,30.27,North,-999,0.0,0.0,95,0.00,,,-99.99,FreeWX 2.05,2013-10-08 07:30:00,
2013-10-08 08:35:00,58.1,56.7,30.27,North,-999,0.0,0.0,95,0.00,,,-99.99,FreeWX 2.05,2013-10-08 07:35:00,
2013-10-08 08:40:00,58.1,56.7,30.27,North,-999,0.0,0.0,95,0.00,,,-99.99,FreeWX 2.05,2013-10-08 07:40:00,
2013-10-08 08:45:00,58.1,56.7,30.27,North,-999,0.0,0.0,95,0.00,,,-99.99,FreeWX 2.05,2013-10-08 07:45:00,
2013-10-08 08:50:00,58.1,56.7,30.27,North,-999,0.0,0.0,95,0.00,,,-99.99,FreeWX 2.05,2013-10-08 07:50:00,
2013-10-08 08:55:00,58.3,56.8,30.27,North,-999,0.0,0.0,95,0.00,,,-99.99,FreeWX 2.05,2013-10-08 07:55:00,
2013-10-08 09:00:00,58.5,57.0,30.27,North,-999,0.0,0.0,95,0.00,,,-99.99,FreeWX 2.05,2013-10-08 08:00:00,
2013-10-08 09:05:00,58.6,57.2,30.27,North,-999,0.0,0.0,95,0.00,,,-99.99,FreeWX 2.05,2013-10-08 08:05:00,
2013-10-08 09:10:00,59.0,57.6,30.27,North,-999,0.0,0.0,95,0.00,,,-99.99,FreeWX 2.05,2013-10-08 08:10:00,
2013-10-08 09:20:00,59.5,58.1,30.27,North,-999,0.0,0.0,95,0.00,,,-99.99,FreeWX 2.05,2013-10-08 08:20:00,
2013-10-08 09:25:00,59.9,58.5,30.27,North,-999,0.0,0.0,95,0.00,,,-99.99,FreeWX 2.05,2013-10-08 08:25:00,
2013-10-08 09:35:00,60.4,59.0,30.27,North,-999,0.0,0.0,95,0.00,,,-99.99,FreeWX 2.05,2013-10-08 08:35:00,
2013-10-08 09:40:00,60.8,59.4,30.27,North,-999,0.0,0.0,95,0.00,,,-99.99,FreeWX 2.05,2013-10-08 08:40:00,
2013-10-08 09:45:00,61.0,59.5,30.27,North,-999,0.0,0.0,95,0.00,,,-99.99,FreeWX 2.05,2013-10-08 08:45:00,
2013-10-08 09:50:00,61.3,59.9,30.27,North,-999,0.0,0.0,95,0.00,,,-99.99,FreeWX 2.05,2013-10-08 08:50:00,
2013-10-08 10:00:00,61.5,60.1,30.27,North,-999,0.0,0.0,95,0.00,,,-99.99,FreeWX 2.05,2013-10-08 09:00:00,
2013-10-08 10:05:00,61.7,60.3,30.27,North,-999,0.0,0.0,95,0.00,,,-99.99,FreeWX 2.05,2013-10-08 09:05:00,
2013-10-08 10:10:00,61.9,60.4,30.27,North,-999,0.0,0.0,95,0.00,,,-99.99,FreeWX 2.05,2013-10-08 09:10:00,
2013-10-08 10:15:00,62.4,61.0,30.27,North,-999,0.0,0.0,95,0.00,,,-99.99,FreeWX 2.05,2013-10-08 09:15:00,
2013-10-08 10:20:00,62.4,61.0,30.27,North,-999,0.0,0.0,95,0.00,,,-99.99,FreeWX 2.05,2013-10-08 09:20:00,
2013-10-08 10:30:00,62.8,61.0,30.27,North,-999,0.0,0.0,94,0.00,,,-99.99,FreeWX 2.05,2013-10-08 09:30:00,
2013-10-08 10:35:00,63.1,61.2,30.27,North,-999,0.0,0.0,93,0.00,,,-99.99,FreeWX 2.05,2013-10-08 09:35:00,
2013-10-08 10:40:00,63.3,61.3,30.27,North,-999,0.0,0.0,93,0.00,,,-99.99,FreeWX 2.05,2013-10-08 09:40:00,
2013-10-08 10:45:00,63.5,61.2,30.27,North,-999,0.0,0.0,92,0.00,,,-99.99,FreeWX 2.05,2013-10-08 09:45:00,
2013-10-08 10:55:00,63.9,60.8,30.27,North,-999,0.0,0.0,90,0.00,,,-99.99,FreeWX 2.05,2013-10-08 09:55:00,
2013-10-08 11:00:00,63.9,60.3,30.27,North,-999,0.0,0.0,88,0.00,,,-99.99,FreeWX 2.05,2013-10-08 10:00:00,
2013-10-08 11:05:00,64.0,59.4,30.27,North,-999,0.0,0.0,85,0.00,,,-99.99,FreeWX 2.05,2013-10-08 10:05:00,
2013-10-08 11:10:00,64.2,59.5,30.27,North,-999,0.0,0.0,85,0.00,,,-99.99,FreeWX 2.05,2013-10-08 10:10:00,
2013-10-08 11:20:00,64.9,59.9,30.27,North,-999,0.0,0.0,84,0.00,,,-99.99,FreeWX 2.05,2013-10-08 10:20:00,
2013-10-08 11:30:00,65.5,59.9,30.27,North,-999,0.0,0.0,82,0.00,,,-99.99,FreeWX 2.05,2013-10-08 10:30:00,
2013-10-08 11:40:00,66.0,59.7,30.24,North,-999,0.0,0.0,80,0.00,,,-99.99,FreeWX 2.05,2013-10-08 10:40:00,
2013-10-08 11:45:00,66.2,59.2,30.24,North,-999,0.0,0.0,78,0.00,,,-99.99,FreeWX 2.05,2013-10-08 10:45:00,
2013-10-08 11:50:00,66.4,58.6,30.24,North,-999,0.0,0.0,76,0.00,,,-99.99,FreeWX 2.05,2013-10-08 10:50:00,
2013-10-08 12:00:00,66.0,56.7,30.24,North,-999,0.0,0.0,72,0.00,,,-99.99,FreeWX 2.05,2013-10-08 11:00:00,
2013-10-08 12:11:00,66.4,57.0,30.24,North,-999,0.0,0.0,72,0.00,,,-99.99,FreeWX 2.05,2013-10-08 11:11:00,
2013-10-08 12:20:00,66.7,57.0,30.24,North,-999,0.0,0.0,71,0.00,,,-99.99,FreeWX 2.05,2013-10-08 11:20:00,
2013-10-08 12:25:00,66.7,56.7,30.24,North,-999,0.0,0.0,70,0.00,,,-99.99,FreeWX 2.05,2013-10-08 11:25:00,
2013-10-08 12:35:00,67.1,57.0,30.24,North,-999,0.0,0.0,70,0.00,,,-99.99,FreeWX 2.05,2013-10-08 11:35:00,
2013-10-08 12:40:00,67.5,56.8,30.24,North,-999,0.0,0.0,69,0.00,,,-99.99,FreeWX 2.05,2013-10-08 11:40:00,
2013-10-08 12:50:00,67.8,56.5,30.24,North,-999,0.0,0.0,67,0.00,,,-99.99,FreeWX 2.05,2013-10-08 11:50:00,
2013-10-08 12:55:00,67.6,55.9,30.24,North,-999,0.0,0.0,66,0.00,,,-99.99,FreeWX 2.05,2013-10-08 11:55:00,
2013-10-08 13:00:00,67.5,55.2,30.24,North,-999,0.0,0.0,65,0.00,,,-99.99,FreeWX 2.05,2013-10-08 12:00:00,
2013-10-08 13:05:00,67.6,55.9,30.24,North,-999,0.0,0.0,66,0.00,,,-99.99,FreeWX 2.05,2013-10-08 12:05:00,
2013-10-08 13:10:00,68.0,56.1,30.24,North,-999,0.0,0.0,66,0.00,,,-99.99,FreeWX 2.05,2013-10-08 12:10:00,
2013-10-08 13:15:00,68.0,55.8,30.24,North,-999,0.0,0.0,65,0.00,,,-99.99,FreeWX 2.05,2013-10-08 12:15:00,
2013-10-08 13:20:00,68.2,55.9,30.24,North,-999,0.0,0.0,65,0.00,,,-99.99,FreeWX 2.05,2013-10-08 12:20:00,
2013-10-08 13:30:00,67.6,55.0,30.24,North,-999,0.0,0.0,64,0.00,,,-99.99,FreeWX 2.05,2013-10-08 12:30:00,
2013-10-08 13:40:00,68.2,55.9,30.24,North,-999,0.0,0.0,65,0.00,,,-99.99,FreeWX 2.05,2013-10-08 12:40:00,
2013-10-08 13:45:00,68.2,55.6,30.24,North,-999,0.0,0.0,64,0.00,,,-99.99,FreeWX 2.05,2013-10-08 12:45:00,
2013-10-08 13:50:00,68.0,55.4,30.24,North,-999,0.0,0.0,64,0.00,,,-99.99,FreeWX 2.05,2013-10-08 12:50:00,
2013-10-08 13:55:00,68.0,55.4,30.24,North,-999,0.0,0.0,64,0.00,,,-99.99,FreeWX 2.05,2013-10-08 12:55:00,
2013-10-08 14:05:00,68.4,56.1,30.24,North,-999,0.0,0.0,65,0.00,,,-99.99,FreeWX 2.05,2013-10-08 13:05:00,
2013-10-08 14:15:00,68.2,55.6,30.24,North,-999,0.0,0.0,64,0.00,,,-99.99,FreeWX 2.05,2013-10-08 13:15:00,
2013-10-08 14:20:00,68.2,55.6,30.24,North,-999,0.0,0.0,64,0.00,,,-99.99,FreeWX 2.05,2013-10-08 13:20:00,
2013-10-08 14:25:00,68.0,55.4,30.24,North,-999,0.0,0.0,64,0.00,,,-99.99,FreeWX 2.05,2013-10-08 13:25:00,
2013-10-08 14:35:00,67.6,55.4,30.24,North,-999,0.0,0.0,65,0.00,,,-99.99,FreeWX 2.05,2013-10-08 13:35:00,
2013-10-08 14:40:00,67.6,55.4,30.24,North,-999,0.0,0.0,65,0.00,,,-99.99,FreeWX 2.05,2013-10-08 13:40:00,
2013-10-08 14:45:00,67.6,55.4,30.24,North,-999,0.0,0.0,65,0.00,,,-99.99,FreeWX 2.05,2013-10-08 13:45:00,
2013-10-08 14:55:00,67.5,55.8,30.21,North,-999,0.0,0.0,66,0.00,,,-99.99,FreeWX 2.05,2013-10-08 13:55:00,
2013-10-08 15:05:00,67.6,56.3,30.21,North,-999,0.0,0.0,67,0.00,,,-99.99,FreeWX 2.05,2013-10-08 14:05:00,
2013-10-08 15:10:00,67.8,56.5,30.21,North,-999,0.0,0.0,67,0.00,,,-99.99,FreeWX 2.05,2013-10-08 14:10:00,
2013-10-08 15:15:00,67.8,56.5,30.21,North,-999,0.0,0.0,67,0.00,,,-99.99,FreeWX 2.05,2013-10-08 14:15:00,
2013-10-08 15:25:00,67.5,56.1,30.21,North,-999,0.0,0.0,67,0.00,,,-99.99,FreeWX 2.05,2013-10-08 14:25:00,
2013-10-08 15:35:00,67.3,55.9,30.21,North,-999,0.0,0.0,67,0.00,,,-99.99,FreeWX 2.05,2013-10-08 14:35:00,
2013-10-08 15:45:00,67.1,56.1,30.21,North,-999,0.0,0.0,68,0.00,,,-99.99,FreeWX 2.05,2013-10-08 14:45:00,
2013-10-08 15:55:00,67.1,56.7,30.24,North,-999,0.0,0.0,69,0.00,,,-99.99,FreeWX 2.05,2013-10-08 14:55:00,
2013-10-08 16:00:00,66.9,56.5,30.24,North,-999,0.0,0.0,69,0.00,,,-99.99,FreeWX 2.05,2013-10-08 15:00:00,
2013-10-08 16:10:00,66.6,56.1,30.24,North,-999,0.0,0.0,69,0.00,,,-99.99,FreeWX 2.05,2013-10-08 15:10:00,
2013-10-08 16:15:00,66.6,56.5,30.24,North,-999,0.0,0.0,70,0.00,,,-99.99,FreeWX 2.05,2013-10-08 15:15:00,
2013-10-08 16:25:00,66.7,56.7,30.21,North,-999,0.0,0.0,70,0.00,,,-99.99,FreeWX 2.05,2013-10-08 15:25:00,
2013-10-08 16:30:00,66.9,56.8,30.21,North,-999,0.0,0.0,70,0.00,,,-99.99,FreeWX 2.05,2013-10-08 15:30:00,
2013-10-08 16:40:00,67.1,57.0,30.24,North,-999,0.0,0.0,70,0.00,,,-99.99,FreeWX 2.05,2013-10-08 15:40:00,
2013-10-08 16:50:00,66.9,56.8,30.24,North,-999,0.0,0.0,70,0.00,,,-99.99,FreeWX 2.05,2013-10-08 15:50:00,
2013-10-08 17:00:00,66.6,56.5,30.21,North,-999,0.0,0.0,70,0.00,,,-99.99,FreeWX 2.05,2013-10-08 16:00:00,
2013-10-08 17:10:00,66.4,56.7,30.21,North,-999,0.0,0.0,71,0.00,,,-99.99,FreeWX 2.05,2013-10-08 16:10:00,
2013-10-08 17:20:00,66.2,56.5,30.21,North,-999,0.0,0.0,71,0.00,,,-99.99,FreeWX 2.05,2013-10-08 16:20:00,
2013-10-08 17:30:00,66.0,56.3,30.21,North,-999,0.0,0.0,71,0.00,,,-99.99,FreeWX 2.05,2013-10-08 16:30:00,
2013-10-08 17:35:00,66.0,56.7,30.21,North,-999,0.0,0.0,72,0.00,,,-99.99,FreeWX 2.05,2013-10-08 16:35:00,
2013-10-08 17:40:00,66.0,56.7,30.21,North,-999,0.0,0.0,72,0.00,,,-99.99,FreeWX 2.05,2013-10-08 16:40:00,
2013-10-08 17:45:00,65.8,56.5,30.21,North,-999,0.0,0.0,72,0.00,,,-99.99,FreeWX 2.05,2013-10-08 16:45:00,
2013-10-08 17:55:00,65.7,56.3,30.21,North,-999,0.0,0.0,72,0.00,,,-99.99,FreeWX 2.05,2013-10-08 16:55:00,
2013-10-08 18:00:00,65.7,56.8,30.21,North,-999,0.0,0.0,73,0.00,,,-99.99,FreeWX 2.05,2013-10-08 17:00:00,
2013-10-08 18:05:00,65.7,56.8,30.21,North,-999,0.0,0.0,73,0.00,,,-99.99,FreeWX 2.05,2013-10-08 17:05:00,
2013-10-08 18:10:00,65.5,57.0,30.21,North,-999,0.0,0.0,74,0.00,,,-99.99,FreeWX 2.05,2013-10-08 17:10:00,
2013-10-08 18:20:00,65.3,56.8,30.21,North,-999,0.0,0.0,74,0.00,,,-99.99,FreeWX 2.05,2013-10-08 17:20:00,
2013-10-08 18:25:00,65.1,57.0,30.21,North,-999,0.0,0.0,75,0.00,,,-99.99,FreeWX 2.05,2013-10-08 17:25:00,
2013-10-08 18:30:00,64.9,56.8,30.21,North,-999,0.0,0.0,75,0.00,,,-99.99,FreeWX 2.05,2013-10-08 17:30:00,
2013-10-08 18:40:00,64.6,56.8,30.21,North,-999,0.0,0.0,76,0.00,,,-99.99,FreeWX 2.05,2013-10-08 17:40:00,
2013-10-08 18:50:00,64.2,56.8,30.21,North,-999,0.0,0.0,77,0.00,,,-99.99,FreeWX 2.05,2013-10-08 17:50:00,
2013-10-08 19:00:00,63.9,56.5,30.21,North,-999,0.0,0.0,77,0.00,,,-99.99,FreeWX 2.05,2013-10-08 18:00:00,
2013-10-08 19:10:00,63.5,56.5,30.24,North,-999,0.0,0.0,78,0.00,,,-99.99,FreeWX 2.05,2013-10-08 18:10:00,
2013-10-08 19:15:00,63.1,56.1,30.24,North,-999,0.0,0.0,78,0.00,,,-99.99,FreeWX 2.05,2013-10-08 18:15:00,
2013-10-08 19:25:00,63.0,56.3,30.24,North,-999,0.0,0.0,79,0.00,,,-99.99,FreeWX 2.05,2013-10-08 18:25:00,
2013-10-08 19:35:00,62.8,56.1,30.24,North,-999,0.0,0.0,79,0.00,,,-99.99,FreeWX 2.05,2013-10-08 18:35:00,
2013-10-08 19:41:00,62.8,56.5,30.24,North,-999,0.0,0.0,80,0.00,,,-99.99,FreeWX 2.05,2013-10-08 18:41:00,
2013-10-08 19:46:00,62.8,56.5,30.24,North,-999,0.0,0.0,80,0.00,,,-99.99,FreeWX 2.05,2013-10-08 18:46:00,
2013-10-08 19:51:00,62.8,56.5,30.24,North,-999,0.0,0.0,80,0.00,,,-99.99,FreeWX 2.05,2013-10-08 18:51:00,
2013-10-08 20:01:00,62.6,56.7,30.24,North,-999,0.0,0.0,81,0.00,,,-99.99,FreeWX 2.05,2013-10-08 19:01:00,
2013-10-08 20:11:00,62.6,57.0,30.24,North,-999,0.0,0.0,82,0.00,,,-99.99,FreeWX 2.05,2013-10-08 19:11:00,
2013-10-08 20:21:00,62.2,56.7,30.24,North,-999,0.0,0.0,82,0.00,,,-99.99,FreeWX 2.05,2013-10-08 19:21:00,
2013-10-08 20:26:00,62.2,56.7,30.24,North,-999,0.0,0.0,82,0.00,,,-99.99,FreeWX 2.05,2013-10-08 19:26:00,
2013-10-08 20:31:00,62.2,57.0,30.24,North,-999,0.0,0.0,83,0.00,,,-99.99,FreeWX 2.05,2013-10-08 19:31:00,
2013-10-08 20:36:00,62.1,56.8,30.24,North,-999,0.0,0.0,83,0.00,,,-99.99,FreeWX 2.05,2013-10-08 19:36:00,
2013-10-08 20:41:00,62.1,56.8,30.24,North,-999,0.0,0.0,83,0.00,,,-99.99,FreeWX 2.05,2013-10-08 19:41:00,
2013-10-08 20:51:00,61.9,56.7,30.24,North,-999,0.0,0.0,83,0.00,,,-99.99,FreeWX 2.05,2013-10-08 19:51:00,
2013-10-08 20:56:00,61.7,56.5,30.24,North,-999,0.0,0.0,83,0.00,,,-99.99,FreeWX 2.05,2013-10-08 19:56:00,
2013-10-08 21:06:00,61.3,56.5,30.24,North,-999,0.0,0.0,84,0.00,,,-99.99,FreeWX 2.05,2013-10-08 20:06:00,
2013-10-08 21:11:00,61.2,56.3,30.24,North,-999,0.0,0.0,84,0.00,,,-99.99,FreeWX 2.05,2013-10-08 20:11:00,
2013-10-08 21:21:00,60.8,56.3,30.24,North,-999,0.0,0.0,85,0.00,,,-99.99,FreeWX 2.05,2013-10-08 20:21:00,
2013-10-08 21:31:00,60.6,56.1,30.24,North,-999,0.0,0.0,85,0.00,,,-99.99,FreeWX 2.05,2013-10-08 20:31:00,
2013-10-08 21:36:00,60.6,56.5,30.24,North,-999,0.0,0.0,86,0.00,,,-99.99,FreeWX 2.05,2013-10-08 20:36:00,
2013-10-08 21:41:00,60.6,56.5,30.24,North,-999,0.0,0.0,86,0.00,,,-99.99,FreeWX 2.05,2013-10-08 20:41:00,
2013-10-08 21:46:00,60.6,56.5,30.24,North,-999,0.0,0.0,86,0.00,,,-99.99,FreeWX 2.05,2013-10-08 20:46:00,
2013-10-08 21:56:00,60.6,56.7,30.24,North,-999,0.0,0.0,87,0.00,,,-99.99,FreeWX 2.05,2013-10-08 20:56:00,
2013-10-08 22:01:00,60.6,56.7,30.24,North,-999,0.0,0.0,87,0.00,,,-99.99,FreeWX 2.05,2013-10-08 21:01:00,
2013-10-08 22:11:00,60.6,56.7,30.24,North,-999,0.0,0.0,87,0.00,,,-99.99,FreeWX 2.05,2013-10-08 21:11:00,
2013-10-08 22:16:00,60.6,56.7,30.24,North,-999,0.0,0.0,87,0.00,,,-99.99,FreeWX 2.05,2013-10-08 21:16:00,
2013-10-08 22:26:00,60.6,57.0,30.24,North,-999,0.0,0.0,88,0.00,,,-99.99,FreeWX 2.05,2013-10-08 21:26:00,
2013-10-08 22:31:00,60.6,57.0,30.24,North,-999,0.0,0.0,88,0.00,,,-99.99,FreeWX 2.05,2013-10-08 21:31:00,
2013-10-08 22:41:00,60.4,56.8,30.24,North,-999,0.0,0.0,88,0.00,,,-99.99,FreeWX 2.05,2013-10-08 21:41:00,
2013-10-08 22:51:00,60.1,56.5,30.24,North,-999,0.0,0.0,88,0.00,,,-99.99,FreeWX 2.05,2013-10-08 21:51:00,
2013-10-08 22:56:00,59.9,56.7,30.24,North,-999,0.0,0.0,89,0.00,,,-99.99,FreeWX 2.05,2013-10-08 21:56:00,
2013-10-08 23:01:00,59.7,56.5,30.24,North,-999,0.0,0.0,89,0.00,,,-99.99,FreeWX 2.05,2013-10-08 22:01:00,
2013-10-08 23:11:00,59.4,56.1,30.24,North,-999,0.0,0.0,89,0.00,,,-99.99,FreeWX 2.05,2013-10-08 22:11:00,
2013-10-08 23:16:00,59.2,55.9,30.24,North,-999,0.0,0.0,89,0.00,,,-99.99,FreeWX 2.05,2013-10-08 22:16:00,
2013-10-08 23:26:00,59.0,55.8,30.24,North,-999,0.0,0.0,89,0.00,,,-99.99,FreeWX 2.05,2013-10-08 22:26:00,
2013-10-08 23:31:00,59.0,56.1,30.24,North,-999,0.0,0.0,90,0.00,,,-99.99,FreeWX 2.05,2013-10-08 22:31:00,
2013-10-08 23:36:00,59.0,56.1,30.24,North,-999,0.0,0.0,90,0.00,,,-99.99,FreeWX 2.05,2013-10-08 22:36:00,
2013-10-08 23:41:00,59.0,56.1,30.24,North,-999,0.0,0.0,90,0.00,,,-99.99,FreeWX 2.05,2013-10-08 22:41:00,
2013-10-08 23:46:00,58.8,55.9,30.24,North,-999,0.0,0.0,90,0.00,,,-99.99,FreeWX 2.05,2013-10-08 22:46:00,